Terminal Aerodrome Forecast
Issued by NWS Cleveland, OH

Home | Current Version | Previous Version | Graphics & Text | Print | Product List | Glossary On
Versions: 1 2 3 4 5 6 7 8 9 10 11 12 13 14 15 16 17 18 19 20 21 22 23 24 25 26 27 28 29
000
FTUS41 KCLE 092209 AAC
TAFCLE
TAF AMD
KCLE 092209Z 0922/1024 25010KT 5SM -SN BR SCT015 OVC025
      TEMPO 0923/1003 3/4SM -SN BR OVC008
     FM101000 29012G20KT 6SM -SN OVC020
     FM101300 25012G20KT P6SM OVC030
     FM101500 24012G20KT P6SM SCT030 BKN040=

USA.gov is the U.S. government's official web portal to all federal, state and local government web resources and services.